sensor_id;sensor_type;location;lat;lon;timestamp;pressure;altitude;pressure_sealevel;temperature;humidity
74441;BME280;62870;54.692;25.284;2022-09-29T00:04:00;1012.6;;;11.4;75.9
74441;BME280;62870;54.692;25.284;2022-09-29T00:08:48;1012.7;;;11.5;76
74441;BME280;62870;54.692;25.284;2022-09-29T00:13:28;1012.6;;;11.5;75.6
74441;BME280;62870;54.692;25.284;2022-09-29T00:19:10;1012.6;;;11.5;75.7
74441;BME280;62870;54.692;25.284;2022-09-29T00:23:28;1012.6;;;11.5;75.5
74441;BME280;62870;54.692;25.284;2022-09-29T00:28:49;1012.7;;;11.5;75.3
74441;BME280;62870;54.692;25.284;2022-09-29T00:34:08;1012.7;;;11.4;75.2
74441;BME280;62870;54.692;25.284;2022-09-29T00:38:56;1012.8;;;11.4;75.4
74441;BME280;62870;54.692;25.284;2022-09-29T00:44:03;1012.9;;;11.4;75.5
74441;BME280;62870;54.692;25.284;2022-09-29T00:48:48;1012.9;;;11.4;75.1
74441;BME280;62870;54.692;25.284;2022-09-29T00:54:10;1012.9;;;11.3;75.1
74441;BME280;62870;54.692;25.284;2022-09-29T00:59:13;1012.8;;;11.3;75.3
74441;BME280;62870;54.692;25.284;2022-09-29T01:03:53;1012.8;;;11.2;75.6
74441;BME280;62870;54.692;25.284;2022-09-29T01:09:00;1012.9;;;11.2;75.8
74441;BME280;62870;54.692;25.284;2022-09-29T01:13:38;1012.9;;;11.1;75.7
74441;BME280;62870;54.692;25.284;2022-09-29T01:18:38;1013;;;11.2;76.1
74441;BME280;62870;54.692;25.284;2022-09-29T01:35:16;1013;;;11;75.9
74441;BME280;62870;54.692;25.284;2022-09-29T01:39:06;1013;;;11;76.3
74441;BME280;62870;54.692;25.284;2022-09-29T01:49:10;1012.9;;;11;76.7
74441;BME280;62870;54.692;25.284;2022-09-29T01:54:02;1012.9;;;11;76.7
74441;BME280;62870;54.692;25.284;2022-09-29T01:59:14;1012.9;;;11;77
74441;BME280;62870;54.692;25.284;2022-09-29T02:03:33;1012.9;;;11.1;76.5
74441;BME280;62870;54.692;25.284;2022-09-29T02:09:08;1012.9;;;11.1;76.8
74441;BME280;62870;54.692;25.284;2022-09-29T02:14:15;1012.9;;;11.1;76.7
74441;BME280;62870;54.692;25.284;2022-09-29T02:19:12;1012.9;;;11.1;76.8
74441;BME280;62870;54.692;25.284;2022-09-29T02:24:02;1012.9;;;11.2;76.8
74441;BME280;62870;54.692;25.284;2022-09-29T02:29:02;1012.8;;;11.2;76.4
74441;BME280;62870;54.692;25.284;2022-09-29T02:34:02;1012.8;;;11.1;76.4
74441;BME280;62870;54.692;25.284;2022-09-29T02:39:25;1012.8;;;11.1;76.6
74441;BME280;62870;54.692;25.284;2022-09-29T02:49:09;1012.7;;;11.2;77.2
74441;BME280;62870;54.692;25.284;2022-09-29T02:58:50;1012.8;;;11.3;76.5
74441;BME280;62870;54.692;25.284;2022-09-29T03:03:50;1012.8;;;11.3;76.1
74441;BME280;62870;54.692;25.284;2022-09-29T03:08:52;1012.8;;;11.3;75.8
74441;BME280;62870;54.692;25.284;2022-09-29T03:14:00;1012.8;;;11.3;75.9
74441;BME280;62870;54.692;25.284;2022-09-29T03:18:40;1012.9;;;11.3;76.2
74441;BME280;62870;54.692;25.284;2022-09-29T03:23:40;1012.9;;;11.4;76.4
74441;BME280;62870;54.692;25.284;2022-09-29T03:29:02;1012.9;;;11.6;76.3
74441;BME280;62870;54.692;25.284;2022-09-29T03:34:16;1012.9;;;11.6;76.1
74441;BME280;62870;54.692;25.284;2022-09-29T03:38:54;1012.9;;;11.5;76.2
74441;BME280;62870;54.692;25.284;2022-09-29T03:43:30;1012.9;;;11.4;76.9
74441;BME280;62870;54.692;25.284;2022-09-29T03:48:30;1012.9;;;11.5;76.3
74441;BME280;62870;54.692;25.284;2022-09-29T03:53:40;1012.9;;;11.5;76.1
74441;BME280;62870;54.692;25.284;2022-09-29T03:58:50;1012.9;;;11.6;76.6
74441;BME280;62870;54.692;25.284;2022-09-29T04:03:38;1012.8;;;11.7;76.2
74441;BME280;62870;54.692;25.284;2022-09-29T04:09:02;1012.8;;;11.7;75.6
74441;BME280;62870;54.692;25.284;2022-09-29T04:14:00;1012.8;;;11.6;75.4
74441;BME280;62870;54.692;25.284;2022-09-29T04:18:48;1012.8;;;11.6;75.1
74441;BME280;62870;54.692;25.284;2022-09-29T04:24:16;1012.9;;;11.5;75.4
74441;BME280;62870;54.692;25.284;2022-09-29T04:29:16;1012.9;;;11.5;75.4
74441;BME280;62870;54.692;25.284;2022-09-29T04:33:30;1012.9;;;11.4;75.3
74441;BME280;62870;54.692;25.284;2022-09-29T04:38:38;1012.9;;;11.4;75.3
74441;BME280;62870;54.692;25.284;2022-09-29T04:43:52;1012.9;;;11.3;75.4
74441;BME280;62870;54.692;25.284;2022-09-29T04:49:14;1012.9;;;11.3;75.2
74441;BME280;62870;54.692;25.284;2022-09-29T04:53:50;1012.9;;;11.2;75.8
74441;BME280;62870;54.692;25.284;2022-09-29T04:59:00;1013;;;11.2;76
74441;BME280;62870;54.692;25.284;2022-09-29T05:04:02;1013;;;11.2;75.9
74441;BME280;62870;54.692;25.284;2022-09-29T05:09:04;1012.9;;;11.1;75.9
74441;BME280;62870;54.692;25.284;2022-09-29T05:13:40;1012.9;;;11.1;76.2
74441;BME280;62870;54.692;25.284;2022-09-29T05:19:04;1012.9;;;11.1;76.3
74441;BME280;62870;54.692;25.284;2022-09-29T05:23:42;1013;;;11.1;76.2
74441;BME280;62870;54.692;25.284;2022-09-29T05:28:42;1013;;;11.1;76.4
74441;BME280;62870;54.692;25.284;2022-09-29T05:33:40;1013;;;11.2;76.1
74441;BME280;62870;54.692;25.284;2022-09-29T05:39:04;1012.9;;;11.2;76.2
74441;BME280;62870;54.692;25.284;2022-09-29T05:44:00;1013;;;11.2;76.1
74441;BME280;62870;54.692;25.284;2022-09-29T05:48:30;1013;;;11.2;76.3
74441;BME280;62870;54.692;25.284;2022-09-29T05:53:40;1013.1;;;11.2;76.3
74441;BME280;62870;54.692;25.284;2022-09-29T05:59:04;1013.2;;;11.2;76.6
74441;BME280;62870;54.692;25.284;2022-09-29T06:04:04;1013.3;;;11.3;77
74441;BME280;62870;54.692;25.284;2022-09-29T06:08:50;1013.3;;;11.3;76.3
74441;BME280;62870;54.692;25.284;2022-09-29T06:14:06;1013.3;;;11.3;76.3
74441;BME280;62870;54.692;25.284;2022-09-29T06:18:30;1013.2;;;11.3;76.6
74441;BME280;62870;54.692;25.284;2022-09-29T06:24:18;1013.3;;;11.3;76.9
74441;BME280;62870;54.692;25.284;2022-09-29T06:28:52;1013.3;;;11.3;77
74441;BME280;62870;54.692;25.284;2022-09-29T06:33:38;1013.3;;;11.4;76.7
74441;BME280;62870;54.692;25.284;2022-09-29T06:39:06;1013.3;;;11.4;76.4
74441;BME280;62870;54.692;25.284;2022-09-29T06:44:04;1013.3;;;11.4;76.5
74441;BME280;62870;54.692;25.284;2022-09-29T06:48:50;1013.4;;;11.3;76.7
74441;BME280;62870;54.692;25.284;2022-09-29T06:54:20;1013.4;;;11.3;76.7
74441;BME280;62870;54.692;25.284;2022-09-29T06:59:04;1013.4;;;11.4;76.8
74441;BME280;62870;54.692;25.284;2022-09-29T07:04:16;1013.4;;;11.5;76.9
74441;BME280;62870;54.692;25.284;2022-09-29T07:08:42;1013.4;;;11.7;76.5
74441;BME280;62870;54.692;25.284;2022-09-29T07:13:38;1013.4;;;11.7;76.2
74441;BME280;62870;54.692;25.284;2022-09-29T07:19:16;1013.4;;;11.8;75.9
74441;BME280;62870;54.692;25.284;2022-09-29T07:24:08;1013.5;;;11.8;75.3
74441;BME280;62870;54.692;25.284;2022-09-29T07:28:30;1013.6;;;11.9;75.4
74441;BME280;62870;54.692;25.284;2022-09-29T07:34:02;1013.5;;;11.9;74.6
74441;BME280;62870;54.692;25.284;2022-09-29T07:39:06;1013.5;;;12;75.4
74441;BME280;62870;54.692;25.284;2022-09-29T07:43:54;1013.5;;;12.1;75.6
74441;BME280;62870;54.692;25.284;2022-09-29T07:49:04;1013.6;;;12.2;75
74441;BME280;62870;54.692;25.284;2022-09-29T07:54:14;1013.5;;;12.3;74
74441;BME280;62870;54.692;25.284;2022-09-29T07:58:30;1013.5;;;12.4;74.3
74441;BME280;62870;54.692;25.284;2022-09-29T08:03:30;1013.6;;;12.5;74.3
74441;BME280;62870;54.692;25.284;2022-09-29T08:09:18;1013.7;;;12.5;74.1
74441;BME280;62870;54.692;25.284;2022-09-29T08:14:20;1013.7;;;12.5;74.2
74441;BME280;62870;54.692;25.284;2022-09-29T08:19:20;1013.8;;;12.4;73.2
74441;BME280;62870;54.692;25.284;2022-09-29T08:23:52;1013.8;;;12.3;73.1
74441;BME280;62870;54.692;25.284;2022-09-29T08:29:20;1013.9;;;12.1;73.2
74441;BME280;62870;54.692;25.284;2022-09-29T08:34:18;1013.9;;;12.1;73
74441;BME280;62870;54.692;25.284;2022-09-29T08:38:45;1014;;;12.1;73.2
74441;BME280;62870;54.692;25.284;2022-09-29T08:43:31;1013.9;;;12.1;73
74441;BME280;62870;54.692;25.284;2022-09-29T08:48:31;1013.9;;;12;73.2
74441;BME280;62870;54.692;25.284;2022-09-29T08:53:31;1014;;;12.1;73.1
74441;BME280;62870;54.692;25.284;2022-09-29T08:58:52;1014;;;12.1;73.3
74441;BME280;62870;54.692;25.284;2022-09-29T09:04:28;1014;;;12.1;72.3
74441;BME280;62870;54.692;25.284;2022-09-29T09:09:37;1014.1;;;12.3;72
74441;BME280;62870;54.692;25.284;2022-09-29T09:20:09;1014.1;;;12.8;70.6
74441;BME280;62870;54.692;25.284;2022-09-29T09:24:18;1014.1;;;13.4;69.3
74441;BME280;62870;54.692;25.284;2022-09-29T09:29:23;1014;;;14.4;65.9
74441;BME280;62870;54.692;25.284;2022-09-29T09:34:26;1014.1;;;14.6;64.2
74441;BME280;62870;54.692;25.284;2022-09-29T09:38:45;1014.2;;;14.3;64.5
74441;BME280;62870;54.692;25.284;2022-09-29T09:43:31;1014.3;;;14.1;65.5
74441;BME280;62870;54.692;25.284;2022-09-29T09:49:21;1014.3;;;14;66.3
74441;BME280;62870;54.692;25.284;2022-09-29T09:54:08;1014.4;;;13.8;67
74441;BME280;62870;54.692;25.284;2022-09-29T09:59:00;1014.5;;;13.6;67.1
74441;BME280;62870;54.692;25.284;2022-09-29T10:04:02;1014.6;;;13.4;67.4
74441;BME280;62870;54.692;25.284;2022-09-29T10:09:02;1014.6;;;13.4;67.6
74441;BME280;62870;54.692;25.284;2022-09-29T10:14:23;1014.6;;;13.5;67.2
74441;BME280;62870;54.692;25.284;2022-09-29T10:19:10;1014.6;;;13.4;66.8
74441;BME280;62870;54.692;25.284;2022-09-29T10:24:19;1014.6;;;13.4;66.8
74441;BME280;62870;54.692;25.284;2022-09-29T10:28:41;1014.6;;;13.5;66.6
74441;BME280;62870;54.692;25.284;2022-09-29T10:33:44;1014.6;;;13.6;66.7
74441;BME280;62870;54.692;25.284;2022-09-29T10:39:50;1014.6;;;14;65.9
74441;BME280;62870;54.692;25.284;2022-09-29T10:44:20;1014.7;;;14.1;65.7
74441;BME280;62870;54.692;25.284;2022-09-29T10:49:21;1014.7;;;13.9;65.8
74441;BME280;62870;54.692;25.284;2022-09-29T10:53:52;1014.8;;;13.8;65.7
74441;BME280;62870;54.692;25.284;2022-09-29T10:59:06;1014.9;;;13.9;65.5
74441;BME280;62870;54.692;25.284;2022-09-29T11:04:05;1014.9;;;14.4;63.9
74441;BME280;62870;54.692;25.284;2022-09-29T11:13:56;1014.9;;;15.8;60.4
74441;BME280;62870;54.692;25.284;2022-09-29T11:18:33;1014.8;;;15.7;60.8
74441;BME280;62870;54.692;25.284;2022-09-29T11:23:33;1014.9;;;15.7;60.2
74441;BME280;62870;54.692;25.284;2022-09-29T11:28:33;1014.8;;;16;58.3
74441;BME280;62870;54.692;25.284;2022-09-29T11:35:02;1014.8;;;16.4;57
74441;BME280;62870;54.692;25.284;2022-09-29T11:44:28;1014.8;;;17;56.4
74441;BME280;62870;54.692;25.284;2022-09-29T11:54:29;1014.9;;;17.3;54.6
74441;BME280;62870;54.692;25.284;2022-09-29T11:59:26;1015;;;16.4;56
74441;BME280;62870;54.692;25.284;2022-09-29T12:04:28;1015.1;;;16;56.8
74441;BME280;62870;54.692;25.284;2022-09-29T12:08:48;1015.1;;;15.7;57.5
74441;BME280;62870;54.692;25.284;2022-09-29T12:13:47;1015.1;;;15.4;58.5
74441;BME280;62870;54.692;25.284;2022-09-29T12:18:45;1015.1;;;15.3;59.4
74441;BME280;62870;54.692;25.284;2022-09-29T12:24:39;1015.2;;;15.3;59.3
74441;BME280;62870;54.692;25.284;2022-09-29T12:28:58;1015.2;;;15.2;59
74441;BME280;62870;54.692;25.284;2022-09-29T12:34:04;1015.2;;;15;59.8
74441;BME280;62870;54.692;25.284;2022-09-29T12:44:10;1015.3;;;14.8;61.4
74441;BME280;62870;54.692;25.284;2022-09-29T12:48:57;1015.3;;;14.8;60.9
74441;BME280;62870;54.692;25.284;2022-09-29T12:55:03;1015.4;;;14.9;60.4
74441;BME280;62870;54.692;25.284;2022-09-29T12:58:42;1015.4;;;15.7;57.7
74441;BME280;62870;54.692;25.284;2022-09-29T13:03:35;1015.5;;;16.3;54.8
74441;BME280;62870;54.692;25.284;2022-09-29T13:08:45;1015.5;;;16.2;55.2
74441;BME280;62870;54.692;25.284;2022-09-29T13:23:33;1015.5;;;15.7;55.6
74441;BME280;62870;54.692;25.284;2022-09-29T13:28:32;1015.6;;;15.5;54.5
74441;BME280;62870;54.692;25.284;2022-09-29T13:34:08;1015.7;;;15.7;52.5
74441;BME280;62870;54.692;25.284;2022-09-29T13:39:18;1015.7;;;16.5;50.8
74441;BME280;62870;54.692;25.284;2022-09-29T13:48:50;1015.8;;;17;50.6
74441;BME280;62870;54.692;25.284;2022-09-29T13:53:34;1015.7;;;17.5;49.4
74441;BME280;62870;54.692;25.284;2022-09-29T13:58:58;1015.7;;;17;49.3
74441;BME280;62870;54.692;25.284;2022-09-29T14:03:54;1015.9;;;16.7;50
74441;BME280;62870;54.692;25.284;2022-09-29T14:09:25;1015.9;;;17;49.3
74441;BME280;62870;54.692;25.284;2022-09-29T14:14:07;1016;;;17.4;48.4
74441;BME280;62870;54.692;25.284;2022-09-29T14:19:30;1016;;;18.1;47.4
74441;BME280;62870;54.692;25.284;2022-09-29T14:23:51;1016.1;;;18.8;46
74441;BME280;62870;54.692;25.284;2022-09-29T14:29:25;1016.1;;;19.8;42.2
74441;BME280;62870;54.692;25.284;2022-09-29T14:34:20;1016.1;;;20.6;40.5
74441;BME280;62870;54.692;25.284;2022-09-29T14:38:43;1016.1;;;22.7;36.8
74441;BME280;62870;54.692;25.284;2022-09-29T14:43:53;1016.2;;;24.6;35.2
74441;BME280;62870;54.692;25.284;2022-09-29T14:48:34;1016.3;;;26;33.8
74441;BME280;62870;54.692;25.284;2022-09-29T14:54:25;1016.3;;;25.9;33.8
74441;BME280;62870;54.692;25.284;2022-09-29T15:00:27;1016.4;;;24.8;32.1
74441;BME280;62870;54.692;25.284;2022-09-29T15:03:53;1016.5;;;24.6;31.6
74441;BME280;62870;54.692;25.284;2022-09-29T15:09:16;1016.6;;;25.3;31.3
74441;BME280;62870;54.692;25.284;2022-09-29T15:14:24;1016.6;;;24.3;33.5
74441;BME280;62870;54.692;25.284;2022-09-29T15:18:51;1016.6;;;23.4;35
74441;BME280;62870;54.692;25.284;2022-09-29T15:24:17;1016.6;;;23.1;35.8
74441;BME280;62870;54.692;25.284;2022-09-29T15:29:22;1016.7;;;22.2;36.7
74441;BME280;62870;54.692;25.284;2022-09-29T15:33:44;1016.8;;;21.5;37.5
74441;BME280;62870;54.692;25.284;2022-09-29T15:38:35;1016.9;;;20;40.3
74441;BME280;62870;54.692;25.284;2022-09-29T15:44:22;1017;;;18.5;42.9
74441;BME280;62870;54.692;25.284;2022-09-29T15:49:22;1017.1;;;17.9;44.1
74441;BME280;62870;54.692;25.284;2022-09-29T15:54:22;1017.3;;;17.2;45.2
74441;BME280;62870;54.692;25.284;2022-09-29T15:58:52;1017.3;;;16.4;47.9
74441;BME280;62870;54.692;25.284;2022-09-29T16:04:24;1017.3;;;15.5;50.8
74441;BME280;62870;54.692;25.284;2022-09-29T16:09:24;1017.4;;;15;52.2
74441;BME280;62870;54.692;25.284;2022-09-29T16:14:27;1017.4;;;14.6;52.5
74441;BME280;62870;54.692;25.284;2022-09-29T16:18:57;1017.5;;;14.4;53.3
74441;BME280;62870;54.692;25.284;2022-09-29T16:23:41;1017.5;;;14;56.7
74441;BME280;62870;54.692;25.284;2022-09-29T16:29:04;1017.6;;;13.7;56.8
74441;BME280;62870;54.692;25.284;2022-09-29T16:33:55;1017.7;;;13.5;57.5
74441;BME280;62870;54.692;25.284;2022-09-29T16:38:52;1017.8;;;13.3;58.2
74441;BME280;62870;54.692;25.284;2022-09-29T16:44:39;1017.8;;;13.1;61
74441;BME280;62870;54.692;25.284;2022-09-29T16:49:11;1017.9;;;12.9;62.2
74441;BME280;62870;54.692;25.284;2022-09-29T16:53:56;1018;;;12.7;63
74441;BME280;62870;54.692;25.284;2022-09-29T16:59:24;1018;;;12.7;62.5
74441;BME280;62870;54.692;25.284;2022-09-29T17:04:07;1018.1;;;12.7;61.8
74441;BME280;62870;54.692;25.284;2022-09-29T17:09:23;1018.2;;;12.6;61.6
74441;BME280;62870;54.692;25.284;2022-09-29T17:13:38;1018.2;;;12.5;62.9
74441;BME280;62870;54.692;25.284;2022-09-29T17:18:43;1018.2;;;12.4;63.6
74441;BME280;62870;54.692;25.284;2022-09-29T17:24:22;1018.3;;;12.3;64.1
74441;BME280;62870;54.692;25.284;2022-09-29T17:29:08;1018.3;;;12.3;63.9
74441;BME280;62870;54.692;25.284;2022-09-29T17:33:30;1018.4;;;12.2;63.7
74441;BME280;62870;54.692;25.284;2022-09-29T17:39:07;1018.4;;;12.1;63.7
74441;BME280;62870;54.692;25.284;2022-09-29T17:44:06;1018.5;;;12;64
74441;BME280;62870;54.692;25.284;2022-09-29T17:49:21;1018.5;;;12;64.4
74441;BME280;62870;54.692;25.284;2022-09-29T17:54:06;1018.6;;;11.8;65.6
74441;BME280;62870;54.692;25.284;2022-09-29T17:59:24;1018.6;;;11.7;66.2
74441;BME280;62870;54.692;25.284;2022-09-29T18:04:00;1018.6;;;11.6;66.2
74441;BME280;62870;54.692;25.284;2022-09-29T18:08:54;1018.6;;;11.6;66
74441;BME280;62870;54.692;25.284;2022-09-29T18:14:22;1018.7;;;11.5;65.9
74441;BME280;62870;54.692;25.284;2022-09-29T18:19:22;1018.7;;;11.5;66.2
74441;BME280;62870;54.692;25.284;2022-09-29T18:24:23;1018.7;;;11.3;67.4
74441;BME280;62870;54.692;25.284;2022-09-29T18:28:54;1018.7;;;11.2;68
74441;BME280;62870;54.692;25.284;2022-09-29T18:34:20;1018.8;;;11.2;68.2
74441;BME280;62870;54.692;25.284;2022-09-29T18:39:20;1018.9;;;11.2;67.9
74441;BME280;62870;54.692;25.284;2022-09-29T18:43:42;1018.9;;;11.1;67.6
74441;BME280;62870;54.692;25.284;2022-09-29T18:48:54;1019;;;11.1;67.6
74441;BME280;62870;54.692;25.284;2022-09-29T18:53:40;1019;;;11.1;68.3
74441;BME280;62870;54.692;25.284;2022-09-29T18:58:40;1019.1;;;11.1;68.1
74441;BME280;62870;54.692;25.284;2022-09-29T19:03:54;1019.1;;;11;68.4
74441;BME280;62870;54.692;25.284;2022-09-29T19:08:54;1019.1;;;10.9;69.2
74441;BME280;62870;54.692;25.284;2022-09-29T19:14:24;1019.1;;;10.9;69.4
74441;BME280;62870;54.692;25.284;2022-09-29T19:19:08;1019.1;;;11;69.8
74441;BME280;62870;54.692;25.284;2022-09-29T19:23:30;1019.1;;;11.1;68.8
74441;BME280;62870;54.692;25.284;2022-09-29T19:29:22;1019.2;;;10.9;68.4
74441;BME280;62870;54.692;25.284;2022-09-29T19:34:06;1019.3;;;10.8;69.5
74441;BME280;62870;54.692;25.284;2022-09-29T19:39:22;1019.3;;;10.8;69.8
74441;BME280;62870;54.692;25.284;2022-09-29T19:43:31;1019.4;;;10.8;70.2
74441;BME280;62870;54.692;25.284;2022-09-29T19:48:42;1019.4;;;10.9;69.7
74441;BME280;62870;54.692;25.284;2022-09-29T19:53:44;1019.5;;;10.9;69.3
74441;BME280;62870;54.692;25.284;2022-09-29T19:59:23;1019.6;;;10.8;69.4
74441;BME280;62870;54.692;25.284;2022-09-29T20:04:08;1019.6;;;10.6;70.2
74441;BME280;62870;54.692;25.284;2022-09-29T20:09:06;1019.6;;;10.5;70.6
74441;BME280;62870;54.692;25.284;2022-09-29T20:14:09;1019.7;;;10.6;70.8
74441;BME280;62870;54.692;25.284;2022-09-29T20:19:09;1019.8;;;10.6;70.4
74441;BME280;62870;54.692;25.284;2022-09-29T20:23:54;1019.9;;;10.6;70.3
74441;BME280;62870;54.692;25.284;2022-09-29T20:29:11;1020;;;10.6;70.4
74441;BME280;62870;54.692;25.284;2022-09-29T20:33:30;1020;;;10.5;70.9
74441;BME280;62870;54.692;25.284;2022-09-29T20:38:41;1020.1;;;10.4;70.7
74441;BME280;62870;54.692;25.284;2022-09-29T20:43:30;1020.2;;;10.3;71.3
74441;BME280;62870;54.692;25.284;2022-09-29T20:49:08;1020.2;;;10.2;71.2
74441;BME280;62870;54.692;25.284;2022-09-29T20:53:56;1020.2;;;10.1;70.8
74441;BME280;62870;54.692;25.284;2022-09-29T20:58:52;1020.2;;;10;70.9
74441;BME280;62870;54.692;25.284;2022-09-29T21:03:30;1020.2;;;9.9;71.7
74441;BME280;62870;54.692;25.284;2022-09-29T21:09:04;1020.3;;;9.8;72.1
74441;BME280;62870;54.692;25.284;2022-09-29T21:14:21;1020.3;;;9.8;72.4
74441;BME280;62870;54.692;25.284;2022-09-29T21:18:54;1020.4;;;9.8;72.2
74441;BME280;62870;54.692;25.284;2022-09-29T21:23:31;1020.4;;;9.8;72.1
74441;BME280;62870;54.692;25.284;2022-09-29T21:28:55;1020.4;;;9.8;72
74441;BME280;62870;54.692;25.284;2022-09-29T21:33:44;1020.4;;;9.7;72.3
74441;BME280;62870;54.692;25.284;2022-09-29T21:38:31;1020.4;;;9.7;72.4
74441;BME280;62870;54.692;25.284;2022-09-29T21:43:44;1020.5;;;9.6;73
74441;BME280;62870;54.692;25.284;2022-09-29T21:49:08;1020.5;;;9.6;73
74441;BME280;62870;54.692;25.284;2022-09-29T21:54:22;1020.5;;;9.5;72.8
74441;BME280;62870;54.692;25.284;2022-09-29T21:59:22;1020.5;;;9.5;72.8
74441;BME280;62870;54.692;25.284;2022-09-29T22:04:22;1020.5;;;9.5;72.9
74441;BME280;62870;54.692;25.284;2022-09-29T22:09:24;1020.5;;;9.4;73.4
74441;BME280;62870;54.692;25.284;2022-09-29T22:13:47;1020.6;;;9.4;73.5
74441;BME280;62870;54.692;25.284;2022-09-29T22:18:31;1020.6;;;9.4;73.4
74441;BME280;62870;54.692;25.284;2022-09-29T22:23:40;1020.7;;;9.4;73.3
74441;BME280;62870;54.692;25.284;2022-09-29T22:29:22;1020.7;;;9.4;73.1
74441;BME280;62870;54.692;25.284;2022-09-29T22:34:08;1020.7;;;9.3;73.1
74441;BME280;62870;54.692;25.284;2022-09-29T22:39:04;1020.8;;;9.2;73.3
74441;BME280;62870;54.692;25.284;2022-09-29T22:44:06;1020.8;;;9.2;73.5
74441;BME280;62870;54.692;25.284;2022-09-29T22:49:06;1020.9;;;9.3;73.7
74441;BME280;62870;54.692;25.284;2022-09-29T22:53:52;1020.9;;;9.2;73.4
74441;BME280;62870;54.692;25.284;2022-09-29T22:59:06;1021;;;9.2;73.2
74441;BME280;62870;54.692;25.284;2022-09-29T23:03:28;1021;;;9.1;73.4
74441;BME280;62870;54.692;25.284;2022-09-29T23:08:39;1021;;;8.9;73.7
74441;BME280;62870;54.692;25.284;2022-09-29T23:13:54;1021.1;;;8.8;74.2
74441;BME280;62870;54.692;25.284;2022-09-29T23:19:18;1021.1;;;8.8;74.3
74441;BME280;62870;54.692;25.284;2022-09-29T23:24:04;1021.1;;;8.7;74.2
74441;BME280;62870;54.692;25.284;2022-09-29T23:29:16;1021.1;;;8.7;74.1
74441;BME280;62870;54.692;25.284;2022-09-29T23:33:53;1021.1;;;8.7;74.3
74441;BME280;62870;54.692;25.284;2022-09-29T23:39:02;1021.2;;;8.6;74.6
74441;BME280;62870;54.692;25.284;2022-09-29T23:44:19;1021.3;;;8.6;74.8
74441;BME280;62870;54.692;25.284;2022-09-29T23:48:54;1021.3;;;8.6;75
74441;BME280;62870;54.692;25.284;2022-09-29T23:53:52;1021.4;;;8.5;74.8
74441;BME280;62870;54.692;25.284;2022-09-29T23:58:38;1021.4;;;8.5;74.5
